sensor_id;sensor_type;location;lat;lon;timestamp;P1;durP1;ratioP1;P2;durP2;ratioP2
2201;SDS011;1107;48.654;9.250;2023-07-24T00:01:01;9.07;;;8.30;;
2201;SDS011;1107;48.654;9.250;2023-07-24T00:03:28;8.83;;;8.23;;
2201;SDS011;1107;48.654;9.250;2023-07-24T00:05:57;9.20;;;8.40;;
2201;SDS011;1107;48.654;9.250;2023-07-24T00:08:24;9.13;;;8.47;;
2201;SDS011;1107;48.654;9.250;2023-07-24T00:10:51;9.10;;;8.23;;
2201;SDS011;1107;48.654;9.250;2023-07-24T00:13:20;7.60;;;7.20;;
2201;SDS011;1107;48.654;9.250;2023-07-24T00:15:47;9.40;;;8.50;;
2201;SDS011;1107;48.654;9.250;2023-07-24T00:18:14;9.07;;;8.33;;
2201;SDS011;1107;48.654;9.250;2023-07-24T00:20:41;8.60;;;8.00;;
2201;SDS011;1107;48.654;9.250;2023-07-24T00:23:07;8.87;;;8.17;;
2201;SDS011;1107;48.654;9.250;2023-07-24T00:25:34;9.90;;;9.20;;
2201;SDS011;1107;48.654;9.250;2023-07-24T00:28:01;8.27;;;7.80;;
2201;SDS011;1107;48.654;9.250;2023-07-24T00:30:30;9.47;;;8.67;;
2201;SDS011;1107;48.654;9.250;2023-07-24T00:32:57;9.20;;;8.60;;
2201;SDS011;1107;48.654;9.250;2023-07-24T00:35:24;9.77;;;8.20;;
2201;SDS011;1107;48.654;9.250;2023-07-24T00:37:51;16.33;;;8.80;;
2201;SDS011;1107;48.654;9.250;2023-07-24T00:40:18;13.43;;;8.53;;
2201;SDS011;1107;48.654;9.250;2023-07-24T00:42:46;8.60;;;7.90;;
2201;SDS011;1107;48.654;9.250;2023-07-24T00:45:14;9.60;;;8.73;;
2201;SDS011;1107;48.654;9.250;2023-07-24T00:47:42;8.20;;;7.67;;
2201;SDS011;1107;48.654;9.250;2023-07-24T00:50:09;8.80;;;8.23;;
2201;SDS011;1107;48.654;9.250;2023-07-24T00:52:38;9.10;;;8.50;;
2201;SDS011;1107;48.654;9.250;2023-07-24T00:55:06;10.43;;;9.43;;
2201;SDS011;1107;48.654;9.250;2023-07-24T00:57:34;9.30;;;8.60;;
2201;SDS011;1107;48.654;9.250;2023-07-24T01:00:02;8.97;;;8.37;;
2201;SDS011;1107;48.654;9.250;2023-07-24T01:02:29;8.83;;;8.20;;
2201;SDS011;1107;48.654;9.250;2023-07-24T01:04:58;11.70;;;8.93;;
2201;SDS011;1107;48.654;9.250;2023-07-24T01:07:25;8.23;;;7.70;;
2201;SDS011;1107;48.654;9.250;2023-07-24T01:09:52;9.20;;;8.40;;
2201;SDS011;1107;48.654;9.250;2023-07-24T01:12:21;9.73;;;8.83;;
2201;SDS011;1107;48.654;9.250;2023-07-24T01:14:53;9.60;;;8.90;;
2201;SDS011;1107;48.654;9.250;2023-07-24T01:17:24;9.40;;;8.80;;
2201;SDS011;1107;48.654;9.250;2023-07-24T01:19:54;10.00;;;9.20;;
2201;SDS011;1107;48.654;9.250;2023-07-24T01:22:29;10.80;;;8.80;;
2201;SDS011;1107;48.654;9.250;2023-07-24T01:25:05;9.87;;;8.97;;
2201;SDS011;1107;48.654;9.250;2023-07-24T01:27:41;9.20;;;8.40;;
2201;SDS011;1107;48.654;9.250;2023-07-24T01:30:09;10.20;;;9.17;;
2201;SDS011;1107;48.654;9.250;2023-07-24T01:32:36;9.33;;;8.47;;
2201;SDS011;1107;48.654;9.250;2023-07-24T01:35:04;9.43;;;8.60;;
2201;SDS011;1107;48.654;9.250;2023-07-24T01:37:31;8.80;;;8.10;;
2201;SDS011;1107;48.654;9.250;2023-07-24T01:40:00;9.20;;;8.57;;
2201;SDS011;1107;48.654;9.250;2023-07-24T01:42:28;9.33;;;8.60;;
2201;SDS011;1107;48.654;9.250;2023-07-24T01:44:56;10.07;;;9.20;;
2201;SDS011;1107;48.654;9.250;2023-07-24T01:47:23;9.90;;;9.10;;
2201;SDS011;1107;48.654;9.250;2023-07-24T01:49:50;8.80;;;8.30;;
2201;SDS011;1107;48.654;9.250;2023-07-24T01:52:17;9.10;;;8.37;;
2201;SDS011;1107;48.654;9.250;2023-07-24T01:54:44;8.83;;;8.30;;
2201;SDS011;1107;48.654;9.250;2023-07-24T01:57:11;10.13;;;9.30;;
2201;SDS011;1107;48.654;9.250;2023-07-24T01:59:38;11.27;;;8.80;;
2201;SDS011;1107;48.654;9.250;2023-07-24T02:02:06;10.20;;;8.80;;
2201;SDS011;1107;48.654;9.250;2023-07-24T02:04:33;8.53;;;7.93;;
2201;SDS011;1107;48.654;9.250;2023-07-24T02:07:00;9.00;;;8.13;;
2201;SDS011;1107;48.654;9.250;2023-07-24T02:09:27;9.30;;;8.50;;
2201;SDS011;1107;48.654;9.250;2023-07-24T02:11:54;8.77;;;8.17;;
2201;SDS011;1107;48.654;9.250;2023-07-24T02:14:21;8.57;;;7.93;;
2201;SDS011;1107;48.654;9.250;2023-07-24T02:16:49;11.27;;;8.70;;
2201;SDS011;1107;48.654;9.250;2023-07-24T02:19:17;9.30;;;8.40;;
2201;SDS011;1107;48.654;9.250;2023-07-24T02:21:44;9.27;;;8.57;;
2201;SDS011;1107;48.654;9.250;2023-07-24T02:24:11;9.30;;;8.27;;
2201;SDS011;1107;48.654;9.250;2023-07-24T02:26:38;9.10;;;8.30;;
2201;SDS011;1107;48.654;9.250;2023-07-24T02:29:05;9.93;;;7.73;;
2201;SDS011;1107;48.654;9.250;2023-07-24T02:31:32;8.27;;;7.67;;
2201;SDS011;1107;48.654;9.250;2023-07-24T02:33:59;9.33;;;8.07;;
2201;SDS011;1107;48.654;9.250;2023-07-24T02:36:28;15.83;;;8.60;;
2201;SDS011;1107;48.654;9.250;2023-07-24T02:38:55;8.90;;;8.23;;
2201;SDS011;1107;48.654;9.250;2023-07-24T02:41:21;8.20;;;7.60;;
2201;SDS011;1107;48.654;9.250;2023-07-24T02:43:48;9.70;;;8.73;;
2201;SDS011;1107;48.654;9.250;2023-07-24T02:46:15;10.07;;;9.27;;
2201;SDS011;1107;48.654;9.250;2023-07-24T02:48:42;10.40;;;8.37;;
2201;SDS011;1107;48.654;9.250;2023-07-24T02:51:09;9.67;;;8.87;;
2201;SDS011;1107;48.654;9.250;2023-07-24T02:53:38;10.60;;;7.83;;
2201;SDS011;1107;48.654;9.250;2023-07-24T02:56:04;9.23;;;8.40;;
2201;SDS011;1107;48.654;9.250;2023-07-24T02:58:31;10.30;;;8.30;;
2201;SDS011;1107;48.654;9.250;2023-07-24T03:01:02;8.73;;;8.10;;
2201;SDS011;1107;48.654;9.250;2023-07-24T03:03:31;9.43;;;7.73;;
2201;SDS011;1107;48.654;9.250;2023-07-24T03:05:57;8.53;;;7.77;;
2201;SDS011;1107;48.654;9.250;2023-07-24T03:08:24;8.60;;;8.10;;
2201;SDS011;1107;48.654;9.250;2023-07-24T03:10:53;9.40;;;8.60;;
2201;SDS011;1107;48.654;9.250;2023-07-24T03:13:20;8.93;;;8.23;;
2201;SDS011;1107;48.654;9.250;2023-07-24T03:15:51;10.30;;;8.33;;
2201;SDS011;1107;48.654;9.250;2023-07-24T03:18:19;8.77;;;8.17;;
2201;SDS011;1107;48.654;9.250;2023-07-24T03:20:46;9.13;;;8.03;;
2201;SDS011;1107;48.654;9.250;2023-07-24T03:23:13;10.03;;;8.30;;
2201;SDS011;1107;48.654;9.250;2023-07-24T03:25:40;8.60;;;7.80;;
2201;SDS011;1107;48.654;9.250;2023-07-24T03:28:08;9.63;;;8.83;;
2201;SDS011;1107;48.654;9.250;2023-07-24T03:30:35;8.23;;;7.43;;
2201;SDS011;1107;48.654;9.250;2023-07-24T03:33:03;9.60;;;8.80;;
2201;SDS011;1107;48.654;9.250;2023-07-24T03:35:31;9.20;;;8.40;;
2201;SDS011;1107;48.654;9.250;2023-07-24T03:37:58;9.40;;;8.80;;
2201;SDS011;1107;48.654;9.250;2023-07-24T03:40:25;8.63;;;8.10;;
2201;SDS011;1107;48.654;9.250;2023-07-24T03:42:52;8.50;;;7.80;;
2201;SDS011;1107;48.654;9.250;2023-07-24T03:45:20;8.67;;;7.97;;
2201;SDS011;1107;48.654;9.250;2023-07-24T03:47:47;9.40;;;8.30;;
2201;SDS011;1107;48.654;9.250;2023-07-24T03:50:16;8.57;;;7.87;;
2201;SDS011;1107;48.654;9.250;2023-07-24T03:52:43;10.10;;;9.10;;
2201;SDS011;1107;48.654;9.250;2023-07-24T03:55:10;9.33;;;8.43;;
2201;SDS011;1107;48.654;9.250;2023-07-24T03:57:37;7.53;;;6.90;;
2201;SDS011;1107;48.654;9.250;2023-07-24T04:00:04;9.70;;;8.80;;
2201;SDS011;1107;48.654;9.250;2023-07-24T04:02:33;8.90;;;8.30;;
2201;SDS011;1107;48.654;9.250;2023-07-24T04:05:00;9.50;;;8.60;;
2201;SDS011;1107;48.654;9.250;2023-07-24T04:07:27;9.73;;;8.90;;
2201;SDS011;1107;48.654;9.250;2023-07-24T04:09:54;10.63;;;9.73;;
2201;SDS011;1107;48.654;9.250;2023-07-24T04:12:21;9.50;;;8.67;;
2201;SDS011;1107;48.654;9.250;2023-07-24T04:14:48;9.97;;;9.23;;
2201;SDS011;1107;48.654;9.250;2023-07-24T04:17:15;9.40;;;8.77;;
2201;SDS011;1107;48.654;9.250;2023-07-24T04:19:44;10.17;;;9.27;;
2201;SDS011;1107;48.654;9.250;2023-07-24T04:22:10;9.70;;;8.80;;
2201;SDS011;1107;48.654;9.250;2023-07-24T04:24:37;15.57;;;8.53;;
2201;SDS011;1107;48.654;9.250;2023-07-24T04:27:04;10.40;;;8.17;;
2201;SDS011;1107;48.654;9.250;2023-07-24T04:29:31;9.43;;;8.70;;
2201;SDS011;1107;48.654;9.250;2023-07-24T04:31:58;10.73;;;8.53;;
2201;SDS011;1107;48.654;9.250;2023-07-24T04:34:25;10.23;;;9.33;;
2201;SDS011;1107;48.654;9.250;2023-07-24T04:36:53;8.77;;;8.17;;
2201;SDS011;1107;48.654;9.250;2023-07-24T04:39:20;11.10;;;10.00;;
2201;SDS011;1107;48.654;9.250;2023-07-24T04:41:47;11.70;;;9.17;;
2201;SDS011;1107;48.654;9.250;2023-07-24T04:44:14;13.70;;;9.73;;
2201;SDS011;1107;48.654;9.250;2023-07-24T04:46:41;9.83;;;8.90;;
2201;SDS011;1107;48.654;9.250;2023-07-24T04:49:08;9.40;;;8.63;;
2201;SDS011;1107;48.654;9.250;2023-07-24T04:51:35;9.90;;;9.07;;
2201;SDS011;1107;48.654;9.250;2023-07-24T04:54:03;9.73;;;9.00;;
2201;SDS011;1107;48.654;9.250;2023-07-24T04:56:30;10.00;;;9.20;;
2201;SDS011;1107;48.654;9.250;2023-07-24T04:58:57;10.00;;;9.30;;
2201;SDS011;1107;48.654;9.250;2023-07-24T05:01:24;8.57;;;7.90;;
2201;SDS011;1107;48.654;9.250;2023-07-24T05:03:51;9.73;;;8.93;;
2201;SDS011;1107;48.654;9.250;2023-07-24T05:06:17;10.10;;;8.87;;
2201;SDS011;1107;48.654;9.250;2023-07-24T05:08:44;8.97;;;8.30;;
2201;SDS011;1107;48.654;9.250;2023-07-24T05:11:13;9.50;;;8.70;;
2201;SDS011;1107;48.654;9.250;2023-07-24T05:13:40;9.27;;;8.40;;
2201;SDS011;1107;48.654;9.250;2023-07-24T05:16:06;9.50;;;8.80;;
2201;SDS011;1107;48.654;9.250;2023-07-24T05:18:33;9.47;;;8.77;;
2201;SDS011;1107;48.654;9.250;2023-07-24T05:21:00;11.37;;;9.63;;
2201;SDS011;1107;48.654;9.250;2023-07-24T05:23:27;9.50;;;8.80;;
2201;SDS011;1107;48.654;9.250;2023-07-24T05:25:57;10.40;;;9.60;;
2201;SDS011;1107;48.654;9.250;2023-07-24T05:28:26;10.00;;;9.20;;
2201;SDS011;1107;48.654;9.250;2023-07-24T05:30:53;11.00;;;9.90;;
2201;SDS011;1107;48.654;9.250;2023-07-24T05:33:20;9.07;;;8.50;;
2201;SDS011;1107;48.654;9.250;2023-07-24T05:35:48;10.50;;;9.70;;
2201;SDS011;1107;48.654;9.250;2023-07-24T05:38:15;10.47;;;9.47;;
2201;SDS011;1107;48.654;9.250;2023-07-24T05:40:42;9.27;;;8.53;;
2201;SDS011;1107;48.654;9.250;2023-07-24T05:43:09;8.93;;;8.40;;
2201;SDS011;1107;48.654;9.250;2023-07-24T05:45:37;9.60;;;8.93;;
2201;SDS011;1107;48.654;9.250;2023-07-24T05:48:05;9.40;;;8.60;;
2201;SDS011;1107;48.654;9.250;2023-07-24T05:50:31;10.93;;;9.83;;
2201;SDS011;1107;48.654;9.250;2023-07-24T05:52:58;10.03;;;9.23;;
2201;SDS011;1107;48.654;9.250;2023-07-24T05:55:25;9.80;;;8.80;;
2201;SDS011;1107;48.654;9.250;2023-07-24T05:57:52;11.60;;;8.90;;
2201;SDS011;1107;48.654;9.250;2023-07-24T06:00:19;10.07;;;9.30;;
2201;SDS011;1107;48.654;9.250;2023-07-24T06:02:47;9.30;;;8.60;;
2201;SDS011;1107;48.654;9.250;2023-07-24T06:05:14;9.40;;;8.70;;
2201;SDS011;1107;48.654;9.250;2023-07-24T06:07:41;9.80;;;9.10;;
2201;SDS011;1107;48.654;9.250;2023-07-24T06:10:08;9.40;;;8.87;;
2201;SDS011;1107;48.654;9.250;2023-07-24T06:12:36;9.67;;;8.73;;
2201;SDS011;1107;48.654;9.250;2023-07-24T06:15:03;9.37;;;8.70;;
2201;SDS011;1107;48.654;9.250;2023-07-24T06:17:31;10.20;;;9.40;;
2201;SDS011;1107;48.654;9.250;2023-07-24T06:19:59;9.77;;;9.07;;
2201;SDS011;1107;48.654;9.250;2023-07-24T06:22:26;10.20;;;9.33;;
2201;SDS011;1107;48.654;9.250;2023-07-24T06:24:53;9.27;;;8.47;;
2201;SDS011;1107;48.654;9.250;2023-07-24T06:27:20;12.07;;;8.73;;
2201;SDS011;1107;48.654;9.250;2023-07-24T06:29:47;10.20;;;9.20;;
2201;SDS011;1107;48.654;9.250;2023-07-24T06:32:14;10.60;;;9.70;;
2201;SDS011;1107;48.654;9.250;2023-07-24T06:34:41;10.23;;;9.33;;
2201;SDS011;1107;48.654;9.250;2023-07-24T06:37:09;9.37;;;8.77;;
2201;SDS011;1107;48.654;9.250;2023-07-24T06:39:36;8.43;;;7.73;;
2201;SDS011;1107;48.654;9.250;2023-07-24T06:42:03;9.87;;;8.97;;
2201;SDS011;1107;48.654;9.250;2023-07-24T06:44:30;9.53;;;8.83;;
2201;SDS011;1107;48.654;9.250;2023-07-24T06:46:57;10.40;;;8.63;;
2201;SDS011;1107;48.654;9.250;2023-07-24T06:49:24;9.20;;;8.27;;
2201;SDS011;1107;48.654;9.250;2023-07-24T06:51:51;10.70;;;9.73;;
2201;SDS011;1107;48.654;9.250;2023-07-24T06:54:19;9.80;;;8.93;;
2201;SDS011;1107;48.654;9.250;2023-07-24T06:56:46;10.00;;;9.20;;
2201;SDS011;1107;48.654;9.250;2023-07-24T06:59:13;10.00;;;9.00;;
2201;SDS011;1107;48.654;9.250;2023-07-24T07:01:40;9.40;;;8.80;;
2201;SDS011;1107;48.654;9.250;2023-07-24T07:04:07;10.03;;;9.20;;
2201;SDS011;1107;48.654;9.250;2023-07-24T07:06:34;17.23;;;9.90;;
2201;SDS011;1107;48.654;9.250;2023-07-24T07:09:00;9.37;;;8.63;;
2201;SDS011;1107;48.654;9.250;2023-07-24T07:11:29;9.67;;;8.87;;
2201;SDS011;1107;48.654;9.250;2023-07-24T07:13:56;10.27;;;9.37;;
2201;SDS011;1107;48.654;9.250;2023-07-24T07:16:23;10.57;;;9.87;;
2201;SDS011;1107;48.654;9.250;2023-07-24T07:18:50;10.67;;;8.87;;
2201;SDS011;1107;48.654;9.250;2023-07-24T07:21:17;10.90;;;10.00;;
2201;SDS011;1107;48.654;9.250;2023-07-24T07:23:44;9.70;;;9.10;;
2201;SDS011;1107;48.654;9.250;2023-07-24T07:26:11;10.10;;;9.50;;
2201;SDS011;1107;48.654;9.250;2023-07-24T07:28:39;10.27;;;9.57;;
2201;SDS011;1107;48.654;9.250;2023-07-24T07:31:06;12.63;;;9.60;;
2201;SDS011;1107;48.654;9.250;2023-07-24T07:33:33;10.50;;;9.40;;
2201;SDS011;1107;48.654;9.250;2023-07-24T07:36:00;10.20;;;9.40;;
2201;SDS011;1107;48.654;9.250;2023-07-24T07:38:27;10.90;;;9.83;;
2201;SDS011;1107;48.654;9.250;2023-07-24T07:40:54;16.60;;;9.97;;
2201;SDS011;1107;48.654;9.250;2023-07-24T07:43:21;10.23;;;9.30;;
2201;SDS011;1107;48.654;9.250;2023-07-24T07:45:49;9.70;;;9.00;;
2201;SDS011;1107;48.654;9.250;2023-07-24T07:48:16;9.80;;;9.00;;
2201;SDS011;1107;48.654;9.250;2023-07-24T07:50:43;9.73;;;9.03;;
2201;SDS011;1107;48.654;9.250;2023-07-24T07:53:10;9.57;;;9.17;;
2201;SDS011;1107;48.654;9.250;2023-07-24T07:55:37;9.30;;;8.60;;
2201;SDS011;1107;48.654;9.250;2023-07-24T07:58:04;9.20;;;8.60;;
2201;SDS011;1107;48.654;9.250;2023-07-24T08:00:31;8.80;;;8.33;;
2201;SDS011;1107;48.654;9.250;2023-07-24T08:02:59;9.43;;;8.83;;
2201;SDS011;1107;48.654;9.250;2023-07-24T08:05:26;8.93;;;8.20;;
2201;SDS011;1107;48.654;9.250;2023-07-24T08:07:54;8.57;;;8.10;;
2201;SDS011;1107;48.654;9.250;2023-07-24T08:10:20;9.57;;;8.73;;
2201;SDS011;1107;48.654;9.250;2023-07-24T08:12:47;9.50;;;8.63;;
2201;SDS011;1107;48.654;9.250;2023-07-24T08:15:14;7.90;;;7.40;;
2201;SDS011;1107;48.654;9.250;2023-07-24T08:17:41;9.73;;;8.83;;
2201;SDS011;1107;48.654;9.250;2023-07-24T08:20:10;9.17;;;8.33;;
2201;SDS011;1107;48.654;9.250;2023-07-24T08:22:37;8.70;;;8.20;;
2201;SDS011;1107;48.654;9.250;2023-07-24T08:25:04;12.93;;;8.80;;
2201;SDS011;1107;48.654;9.250;2023-07-24T08:27:32;10.93;;;8.83;;
2201;SDS011;1107;48.654;9.250;2023-07-24T08:29:59;9.23;;;8.53;;
2201;SDS011;1107;48.654;9.250;2023-07-24T08:32:26;9.53;;;8.87;;
2201;SDS011;1107;48.654;9.250;2023-07-24T08:34:53;8.50;;;8.03;;
2201;SDS011;1107;48.654;9.250;2023-07-24T08:37:21;8.93;;;8.53;;
2201;SDS011;1107;48.654;9.250;2023-07-24T08:39:48;8.77;;;8.17;;
2201;SDS011;1107;48.654;9.250;2023-07-24T08:42:15;12.83;;;9.27;;
2201;SDS011;1107;48.654;9.250;2023-07-24T08:44:42;9.20;;;8.37;;
2201;SDS011;1107;48.654;9.250;2023-07-24T08:47:10;8.80;;;7.97;;
2201;SDS011;1107;48.654;9.250;2023-07-24T08:49:38;7.50;;;7.10;;
2201;SDS011;1107;48.654;9.250;2023-07-24T08:52:06;8.13;;;7.40;;
2201;SDS011;1107;48.654;9.250;2023-07-24T08:54:36;8.33;;;7.73;;
2201;SDS011;1107;48.654;9.250;2023-07-24T08:57:04;8.27;;;7.70;;
2201;SDS011;1107;48.654;9.250;2023-07-24T08:59:33;13.63;;;9.20;;
2201;SDS011;1107;48.654;9.250;2023-07-24T09:02:00;7.83;;;7.20;;
2201;SDS011;1107;48.654;9.250;2023-07-24T09:04:28;9.60;;;8.90;;
2201;SDS011;1107;48.654;9.250;2023-07-24T09:06:56;9.50;;;9.00;;
2201;SDS011;1107;48.654;9.250;2023-07-24T09:09:28;13.10;;;8.37;;
2201;SDS011;1107;48.654;9.250;2023-07-24T09:11:57;8.77;;;8.07;;
2201;SDS011;1107;48.654;9.250;2023-07-24T09:14:25;8.90;;;8.00;;
2201;SDS011;1107;48.654;9.250;2023-07-24T09:17:02;9.10;;;8.27;;
2201;SDS011;1107;48.654;9.250;2023-07-24T09:19:30;8.63;;;8.03;;
2201;SDS011;1107;48.654;9.250;2023-07-24T09:22:06;9.67;;;9.07;;
2201;SDS011;1107;48.654;9.250;2023-07-24T09:24:35;10.87;;;8.17;;
2201;SDS011;1107;48.654;9.250;2023-07-24T09:27:04;8.47;;;7.87;;
2201;SDS011;1107;48.654;9.250;2023-07-24T09:29:32;10.43;;;7.87;;
2201;SDS011;1107;48.654;9.250;2023-07-24T09:32:00;8.07;;;7.37;;
2201;SDS011;1107;48.654;9.250;2023-07-24T09:34:27;7.00;;;6.60;;
2201;SDS011;1107;48.654;9.250;2023-07-24T09:36:54;8.33;;;7.70;;
2201;SDS011;1107;48.654;9.250;2023-07-24T09:39:24;8.50;;;7.70;;
2201;SDS011;1107;48.654;9.250;2023-07-24T09:41:52;7.40;;;6.90;;
2201;SDS011;1107;48.654;9.250;2023-07-24T09:44:21;7.87;;;7.37;;
2201;SDS011;1107;48.654;9.250;2023-07-24T09:46:51;10.70;;;7.30;;
2201;SDS011;1107;48.654;9.250;2023-07-24T09:49:18;10.20;;;6.93;;
2201;SDS011;1107;48.654;9.250;2023-07-24T09:51:45;7.43;;;7.03;;
2201;SDS011;1107;48.654;9.250;2023-07-24T09:54:18;7.23;;;6.80;;
2201;SDS011;1107;48.654;9.250;2023-07-24T09:56:52;7.83;;;7.20;;
2201;SDS011;1107;48.654;9.250;2023-07-24T09:59:20;7.80;;;7.30;;
2201;SDS011;1107;48.654;9.250;2023-07-24T10:01:48;7.17;;;6.47;;
2201;SDS011;1107;48.654;9.250;2023-07-24T10:04:16;7.30;;;6.80;;
2201;SDS011;1107;48.654;9.250;2023-07-24T10:06:44;7.00;;;6.40;;
2201;SDS011;1107;48.654;9.250;2023-07-24T10:09:12;7.40;;;7.10;;
2201;SDS011;1107;48.654;9.250;2023-07-24T10:11:40;6.70;;;6.40;;
2201;SDS011;1107;48.654;9.250;2023-07-24T10:14:07;6.80;;;6.40;;
2201;SDS011;1107;48.654;9.250;2023-07-24T10:16:36;7.10;;;6.80;;
2201;SDS011;1107;48.654;9.250;2023-07-24T10:19:12;7.40;;;6.90;;
2201;SDS011;1107;48.654;9.250;2023-07-24T10:21:44;7.83;;;6.97;;
2201;SDS011;1107;48.654;9.250;2023-07-24T10:24:12;8.50;;;8.00;;
2201;SDS011;1107;48.654;9.250;2023-07-24T10:26:39;7.43;;;7.03;;
2201;SDS011;1107;48.654;9.250;2023-07-24T10:29:06;8.73;;;8.23;;
2201;SDS011;1107;48.654;9.250;2023-07-24T10:31:33;7.43;;;7.13;;
2201;SDS011;1107;48.654;9.250;2023-07-24T10:34:05;12.77;;;7.40;;
2201;SDS011;1107;48.654;9.250;2023-07-24T10:36:33;9.30;;;6.87;;
2201;SDS011;1107;48.654;9.250;2023-07-24T10:39:00;7.80;;;7.30;;
2201;SDS011;1107;48.654;9.250;2023-07-24T10:41:34;7.23;;;6.83;;
2201;SDS011;1107;48.654;9.250;2023-07-24T10:44:01;6.73;;;6.43;;
2201;SDS011;1107;48.654;9.250;2023-07-24T10:46:35;7.67;;;7.20;;
2201;SDS011;1107;48.654;9.250;2023-07-24T10:49:04;7.73;;;7.33;;
2201;SDS011;1107;48.654;9.250;2023-07-24T10:51:32;8.27;;;7.67;;
2201;SDS011;1107;48.654;9.250;2023-07-24T10:54:02;7.63;;;7.10;;
2201;SDS011;1107;48.654;9.250;2023-07-24T10:56:29;8.27;;;7.73;;
2201;SDS011;1107;48.654;9.250;2023-07-24T10:59:01;7.07;;;6.67;;
2201;SDS011;1107;48.654;9.250;2023-07-24T11:01:29;7.73;;;7.30;;
2201;SDS011;1107;48.654;9.250;2023-07-24T11:03:57;8.00;;;7.30;;
2201;SDS011;1107;48.654;9.250;2023-07-24T11:06:26;8.90;;;8.30;;
2201;SDS011;1107;48.654;9.250;2023-07-24T11:08:54;7.93;;;7.33;;
2201;SDS011;1107;48.654;9.250;2023-07-24T11:11:27;8.70;;;8.30;;
2201;SDS011;1107;48.654;9.250;2023-07-24T11:13:55;8.10;;;7.70;;
2201;SDS011;1107;48.654;9.250;2023-07-24T11:16:22;8.37;;;7.90;;
2201;SDS011;1107;48.654;9.250;2023-07-24T11:18:51;8.80;;;8.20;;
2201;SDS011;1107;48.654;9.250;2023-07-24T11:21:19;9.80;;;8.87;;
2201;SDS011;1107;48.654;9.250;2023-07-24T11:23:48;8.80;;;8.20;;
2201;SDS011;1107;48.654;9.250;2023-07-24T11:26:18;8.47;;;7.77;;
2201;SDS011;1107;48.654;9.250;2023-07-24T11:28:46;8.37;;;7.87;;
2201;SDS011;1107;48.654;9.250;2023-07-24T11:31:13;7.90;;;7.40;;
2201;SDS011;1107;48.654;9.250;2023-07-24T11:33:44;8.07;;;7.47;;
2201;SDS011;1107;48.654;9.250;2023-07-24T11:36:12;7.90;;;7.40;;
2201;SDS011;1107;48.654;9.250;2023-07-24T11:38:39;8.30;;;7.80;;
2201;SDS011;1107;48.654;9.250;2023-07-24T11:41:08;10.00;;;7.20;;
2201;SDS011;1107;48.654;9.250;2023-07-24T11:43:35;8.80;;;8.10;;
2201;SDS011;1107;48.654;9.250;2023-07-24T11:46:11;8.03;;;7.63;;
2201;SDS011;1107;48.654;9.250;2023-07-24T11:48:40;8.23;;;7.83;;
2201;SDS011;1107;48.654;9.250;2023-07-24T11:51:07;9.00;;;8.40;;
2201;SDS011;1107;48.654;9.250;2023-07-24T11:53:39;7.50;;;7.00;;
2201;SDS011;1107;48.654;9.250;2023-07-24T11:56:12;7.70;;;7.30;;
2201;SDS011;1107;48.654;9.250;2023-07-24T11:58:41;7.73;;;7.23;;
2201;SDS011;1107;48.654;9.250;2023-07-24T12:01:08;7.93;;;7.53;;
2201;SDS011;1107;48.654;9.250;2023-07-24T12:03:34;8.80;;;7.57;;
2201;SDS011;1107;48.654;9.250;2023-07-24T12:06:02;8.67;;;8.27;;
2201;SDS011;1107;48.654;9.250;2023-07-24T12:08:29;7.67;;;7.27;;
2201;SDS011;1107;48.654;9.250;2023-07-24T12:10:58;8.60;;;8.10;;
2201;SDS011;1107;48.654;9.250;2023-07-24T12:13:26;8.57;;;8.17;;
2201;SDS011;1107;48.654;9.250;2023-07-24T12:15:53;7.90;;;7.40;;
2201;SDS011;1107;48.654;9.250;2023-07-24T12:18:20;7.43;;;7.03;;
2201;SDS011;1107;48.654;9.250;2023-07-24T12:20:47;7.53;;;7.23;;
2201;SDS011;1107;48.654;9.250;2023-07-24T12:23:14;8.57;;;8.10;;
2201;SDS011;1107;48.654;9.250;2023-07-24T12:25:42;7.70;;;7.30;;
2201;SDS011;1107;48.654;9.250;2023-07-24T12:28:09;7.60;;;6.90;;
2201;SDS011;1107;48.654;9.250;2023-07-24T12:30:37;6.70;;;6.30;;
2201;SDS011;1107;48.654;9.250;2023-07-24T12:33:04;6.67;;;6.37;;
2201;SDS011;1107;48.654;9.250;2023-07-24T12:35:31;6.77;;;6.37;;
2201;SDS011;1107;48.654;9.250;2023-07-24T12:37:58;6.63;;;6.23;;
2201;SDS011;1107;48.654;9.250;2023-07-24T12:40:25;7.47;;;6.80;;
2201;SDS011;1107;48.654;9.250;2023-07-24T12:42:52;6.57;;;6.03;;
2201;SDS011;1107;48.654;9.250;2023-07-24T12:45:19;7.10;;;6.80;;
2201;SDS011;1107;48.654;9.250;2023-07-24T12:47:47;7.17;;;6.70;;
2201;SDS011;1107;48.654;9.250;2023-07-24T12:50:14;9.57;;;8.77;;
2201;SDS011;1107;48.654;9.250;2023-07-24T12:52:41;12.93;;;11.90;;
2201;SDS011;1107;48.654;9.250;2023-07-24T12:55:08;14.00;;;12.80;;
2201;SDS011;1107;48.654;9.250;2023-07-24T12:57:35;17.63;;;15.83;;
2201;SDS011;1107;48.654;9.250;2023-07-24T13:00:02;6.40;;;6.10;;
2201;SDS011;1107;48.654;9.250;2023-07-24T13:02:30;6.50;;;6.10;;
2201;SDS011;1107;48.654;9.250;2023-07-24T13:04:58;6.87;;;6.27;;
2201;SDS011;1107;48.654;9.250;2023-07-24T13:07:25;6.27;;;5.77;;
2201;SDS011;1107;48.654;9.250;2023-07-24T13:09:54;6.47;;;6.17;;
2201;SDS011;1107;48.654;9.250;2023-07-24T13:12:20;7.00;;;6.50;;
2201;SDS011;1107;48.654;9.250;2023-07-24T13:14:47;6.33;;;6.03;;
2201;SDS011;1107;48.654;9.250;2023-07-24T13:17:14;6.07;;;5.77;;
2201;SDS011;1107;48.654;9.250;2023-07-24T13:19:42;6.13;;;5.83;;
2201;SDS011;1107;48.654;9.250;2023-07-24T13:22:10;6.60;;;6.30;;
2201;SDS011;1107;48.654;9.250;2023-07-24T13:24:37;6.20;;;5.90;;
2201;SDS011;1107;48.654;9.250;2023-07-24T13:27:04;6.20;;;5.90;;
2201;SDS011;1107;48.654;9.250;2023-07-24T13:29:31;6.67;;;6.37;;
2201;SDS011;1107;48.654;9.250;2023-07-24T13:31:58;5.73;;;5.43;;
2201;SDS011;1107;48.654;9.250;2023-07-24T13:34:25;5.33;;;5.03;;
2201;SDS011;1107;48.654;9.250;2023-07-24T13:36:52;6.03;;;5.70;;
2201;SDS011;1107;48.654;9.250;2023-07-24T13:39:21;5.60;;;5.30;;
2201;SDS011;1107;48.654;9.250;2023-07-24T13:41:47;5.40;;;5.00;;
2201;SDS011;1107;48.654;9.250;2023-07-24T13:44:14;5.20;;;4.90;;
2201;SDS011;1107;48.654;9.250;2023-07-24T13:46:41;6.33;;;5.67;;
2201;SDS011;1107;48.654;9.250;2023-07-24T13:49:08;5.73;;;5.43;;
2201;SDS011;1107;48.654;9.250;2023-07-24T13:51:35;5.57;;;5.20;;
2201;SDS011;1107;48.654;9.250;2023-07-24T13:54:02;5.23;;;4.93;;
2201;SDS011;1107;48.654;9.250;2023-07-24T13:56:30;5.00;;;4.80;;
2201;SDS011;1107;48.654;9.250;2023-07-24T13:59:00;6.00;;;5.60;;
2201;SDS011;1107;48.654;9.250;2023-07-24T14:01:28;6.57;;;5.40;;
2201;SDS011;1107;48.654;9.250;2023-07-24T14:03:55;6.10;;;5.80;;
2201;SDS011;1107;48.654;9.250;2023-07-24T14:06:22;7.90;;;5.20;;
2201;SDS011;1107;48.654;9.250;2023-07-24T14:08:49;5.53;;;5.03;;
2201;SDS011;1107;48.654;9.250;2023-07-24T14:11:16;5.17;;;4.67;;
2201;SDS011;1107;48.654;9.250;2023-07-24T14:13:44;4.90;;;4.70;;
2201;SDS011;1107;48.654;9.250;2023-07-24T14:16:11;5.20;;;4.97;;
2201;SDS011;1107;48.654;9.250;2023-07-24T14:18:38;4.87;;;4.67;;
2201;SDS011;1107;48.654;9.250;2023-07-24T14:21:05;4.70;;;4.50;;
2201;SDS011;1107;48.654;9.250;2023-07-24T14:23:32;5.97;;;5.47;;
2201;SDS011;1107;48.654;9.250;2023-07-24T14:25:59;4.60;;;4.30;;
2201;SDS011;1107;48.654;9.250;2023-07-24T14:28:26;5.50;;;5.23;;
2201;SDS011;1107;48.654;9.250;2023-07-24T14:30:54;5.43;;;5.13;;
2201;SDS011;1107;48.654;9.250;2023-07-24T14:33:21;4.97;;;4.67;;
2201;SDS011;1107;48.654;9.250;2023-07-24T14:35:48;4.40;;;4.10;;
2201;SDS011;1107;48.654;9.250;2023-07-24T14:38:15;4.30;;;4.10;;
2201;SDS011;1107;48.654;9.250;2023-07-24T14:40:42;4.03;;;3.83;;
2201;SDS011;1107;48.654;9.250;2023-07-24T14:43:09;5.13;;;4.70;;
2201;SDS011;1107;48.654;9.250;2023-07-24T14:45:36;3.93;;;3.73;;
2201;SDS011;1107;48.654;9.250;2023-07-24T14:48:05;4.53;;;4.33;;
2201;SDS011;1107;48.654;9.250;2023-07-24T14:50:35;4.70;;;4.50;;
2201;SDS011;1107;48.654;9.250;2023-07-24T14:53:02;4.40;;;4.20;;
2201;SDS011;1107;48.654;9.250;2023-07-24T14:55:28;4.40;;;4.20;;
2201;SDS011;1107;48.654;9.250;2023-07-24T14:57:55;4.70;;;4.40;;
2201;SDS011;1107;48.654;9.250;2023-07-24T15:00:22;4.83;;;4.43;;
2201;SDS011;1107;48.654;9.250;2023-07-24T15:02:49;6.37;;;4.40;;
2201;SDS011;1107;48.654;9.250;2023-07-24T15:05:17;4.07;;;3.87;;
2201;SDS011;1107;48.654;9.250;2023-07-24T15:07:44;6.90;;;3.87;;
2201;SDS011;1107;48.654;9.250;2023-07-24T15:10:11;4.70;;;4.50;;
2201;SDS011;1107;48.654;9.250;2023-07-24T15:12:38;4.10;;;3.90;;
2201;SDS011;1107;48.654;9.250;2023-07-24T15:15:06;4.23;;;4.03;;